Salten — LMFM — position and weather

sailwx.info

Track history (hours):
 
Tides and Currents Weather Stations Pressure Air Temp Water Temp Dewpoint Dewpoint Depression Visibility Wind Speed Wind Dir Waves Ship Positions

Salten

Last reported at 2017-Jun-24 13:30 UTC. Time now 2017-Jun-24 13:53 UTC.
Position N 67°17' E 014°22'.

Length 41 m; draft 2 m.

Type: High speed craft. MMSI: 259387000.

Date/timePositionNaut miles runAvg speedWind from/ knotsBaromVisibWave heightAir tempDewpointWater temp
2017-Jun-24 13:30N 67°17' E 014°22'0 0.0
2017-Jun-24 13:00N 67°17' E 014°22'0 0.0
2017-Jun-24 12:30N 67°17' E 014°22'0 0.0
2017-Jun-24 12:00N 67°17' E 014°22'0 0.0
2017-Jun-24 11:30N 67°17' E 014°22'0 0.0
2017-Jun-24 11:00N 67°17' E 014°22'0 0.0
2017-Jun-24 10:30N 67°17' E 014°22'0 0.0
2017-Jun-24 10:00N 67°17' E 014°22'0 0.0
2017-Jun-24 09:30N 67°17' E 014°22'0 0.0
2017-Jun-24 09:00N 67°17' E 014°22'0 0.8
2017-Jun-24 08:30N 67°17' E 014°23'611.3
2017-Jun-24 08:01N 67°22' E 014°29'1530.2
2017-Jun-24 07:30N 67°36' E 014°46'815.8
2017-Jun-24 07:00N 67°44' E 014°46'612.7
2017-Jun-24 06:30N 67°51' E 014°47'918.4
2017-Jun-24 06:00N 67°54' E 015°10'815.6
2017-Jun-24 05:30N 68°01' E 015°20'1326.1
2017-Jun-24 05:00N 68°07' E 014°50'918.0
2017-Jun-24 04:30N 68°14' E 014°34'0 0.1
2017-Jun-24 04:00N 68°14' E 014°34'0 0.0
2017-Jun-24 03:30N 68°14' E 014°34'0 0.0
2017-Jun-24 03:00N 68°14' E 014°34'0 0.0
2017-Jun-24 02:30N 68°14' E 014°34'0 0.0
2017-Jun-24 02:00N 68°14' E 014°34'0 0.0
2017-Jun-24 01:30N 68°14' E 014°34'0 0.0
2017-Jun-24 01:00N 68°14' E 014°34'0 0.0
2017-Jun-24 00:30N 68°14' E 014°34'0 0.0
2017-Jun-24 00:00N 68°14' E 014°34'0 0.0
2017-Jun-23 23:30N 68°14' E 014°34'0 0.0
2017-Jun-23 23:00N 68°14' E 014°34'0 0.0
2017-Jun-23 22:30N 68°14' E 014°34'0 0.0
2017-Jun-23 22:00N 68°14' E 014°34'0 0.0
2017-Jun-23 21:30N 68°14' E 014°34'0 0.0
2017-Jun-23 21:00N 68°14' E 014°34'0 0.0
2017-Jun-23 20:29N 68°14' E 014°34'0 0.0
2017-Jun-23 20:00N 68°14' E 014°34'611.6
2017-Jun-23 19:30N 68°09' E 014°40'1530.4
2017-Jun-23 19:00N 68°02' E 015°16'815.8
2017-Jun-23 18:30N 67°54' E 015°11'1019.9
2017-Jun-23 18:00N 67°50' E 014°47'611.5
2017-Jun-23 17:30N 67°46' E 014°37'713.1
2017-Jun-23 16:59N 67°40' E 014°45'1121.9
2017-Jun-23 16:31N 67°30' E 014°38'1428.3
2017-Jun-23 16:00N 67°17' E 014°22'0 0.1
2017-Jun-23 15:30N 67°17' E 014°22'1326.6
2017-Jun-23 15:00N 67°30' E 014°31'8 7.7
2017-Jun-23 14:00N 67°36' E 014°42'1429.0
2017-Jun-23 13:31N 67°23' E 014°30'611.8
2017-Jun-23 13:00N 67°17' E 014°23'0 0.3
2017-Jun-23 12:30N 67°17' E 014°23'0 0.8
2017-Jun-23 12:00N 67°17' E 014°22'0 0.0
2017-Jun-23 11:30N 67°17' E 014°22'0 0.0
2017-Jun-23 11:00N 67°17' E 014°22'0 0.0
2017-Jun-23 10:30N 67°17' E 014°22'0 0.0
2017-Jun-23 10:00N 67°17' E 014°22'0 0.0
2017-Jun-23 09:30N 67°17' E 014°22'0 0.0
2017-Jun-23 09:01N 67°17' E 014°22'0 0.0
2017-Jun-23 08:31N 67°17' E 014°22'1 3.0
2017-Jun-23 08:00N 67°19' E 014°23'1632.2
2017-Jun-23 07:30N 67°33' E 014°42'1122.7
2017-Jun-23 07:00N 67°44' E 014°46'612.5
2017-Jun-23 06:30N 67°51' E 014°47'1019.9
2017-Jun-23 06:00N 67°54' E 015°12'714.2
2017-Jun-23 05:30N 68°01' E 015°21'1529.6
2017-Jun-23 05:01N 68°08' E 014°46'815.0
2017-Jun-23 04:30N 68°14' E 014°34'0 0.0
2017-Jun-23 04:00N 68°14' E 014°34'0 0.0
2017-Jun-23 03:30N 68°14' E 014°34'0 0.0
2017-Jun-23 03:00N 68°14' E 014°34'0 0.0
2017-Jun-23 02:30N 68°14' E 014°34'0 0.0
2017-Jun-23 02:00N 68°14' E 014°34'0 0.0
2017-Jun-23 01:30N 68°14' E 014°34'0 0.0
2017-Jun-23 01:00N 68°14' E 014°34'0 0.0
2017-Jun-23 00:30N 68°14' E 014°34'0 0.0
2017-Jun-23 00:00N 68°14' E 014°34'0 0.0
2017-Jun-22 23:30N 68°14' E 014°34'0 0.0
2017-Jun-22 23:00N 68°14' E 014°34'0 0.0
2017-Jun-22 22:30N 68°14' E 014°34'0 0.0
2017-Jun-22 22:00N 68°14' E 014°34'0 0.0
2017-Jun-22 21:30N 68°14' E 014°34'0 0.0
2017-Jun-22 21:00N 68°14' E 014°34'0 0.0
2017-Jun-22 20:30N 68°14' E 014°34'0 0.0
2017-Jun-22 20:01N 68°14' E 014°34'0 0.0
2017-Jun-22 19:30N 68°14' E 014°34'4 7.3
2017-Jun-22 19:00N 68°10' E 014°38'1020.4
2017-Jun-22 18:30N 68°05' E 015°02'919.1
2017-Jun-22 18:00N 67°59' E 015°20'917.8
2017-Jun-22 17:30N 67°54' E 014°60'612.4
2017-Jun-22 17:00N 67°51' E 014°47'611.4
2017-Jun-22 16:30N 67°45' E 014°46'1019.6
2017-Jun-22 16:00N 67°35' E 014°43'1429.0
2017-Jun-22 15:31N 67°22' E 014°28'510.7
2017-Jun-22 15:00N 67°17' E 014°22'0 0.0
2017-Jun-22 14:00N 67°17' E 014°22'0 0.0
2017-Jun-22 13:30N 67°17' E 014°22'0 0.0
2017-Jun-22 13:00N 67°17' E 014°22'0 0.0
2017-Jun-22 12:30N 67°17' E 014°22'0 0.0
2017-Jun-22 12:00N 67°17' E 014°22'0 0.0
2017-Jun-22 11:30N 67°17' E 014°22'0 0.0
2017-Jun-22 11:00N 67°17' E 014°22'0 0.0
2017-Jun-22 10:30N 67°17' E 014°22'0 0.5
2017-Jun-22 10:00N 67°17' E 014°23'919.0
2017-Jun-22 09:31N 67°11' E 014°05'1529.9
2017-Jun-22 09:00N 66°60' E 013°38'612.7
2017-Jun-22 08:30N 66°54' E 013°35'713.3
2017-Jun-22 08:00N 66°48' E 013°27'815.0
2017-Jun-22 07:30N 66°43' E 013°12'5 9.8
2017-Jun-22 07:00N 66°39' E 013°04'917.6
2017-Jun-22 06:30N 66°31' E 013°00'816.6
2017-Jun-22 06:00N 66°24' E 012°49'1224.9
2017-Jun-22 05:30N 66°12' E 013°00'1224.9
2017-Jun-22 05:00N 66°05' E 012°35'4 6.8
2017-Jun-22 04:27N 66°01' E 012°38'0 0.0
2017-Jun-22 03:59N 66°01' E 012°38'0 0.0
2017-Jun-22 03:29N 66°01' E 012°38'0 0.0
2017-Jun-22 02:59N 66°01' E 012°38'0 0.0
2017-Jun-22 02:30N 66°01' E 012°38'0 0.0
2017-Jun-22 02:00N 66°01' E 012°38'0 0.0
2017-Jun-22 01:28N 66°01' E 012°38'0 0.0
2017-Jun-22 01:00N 66°01' E 012°38'0 0.0
2017-Jun-22 00:29N 66°01' E 012°38'0 0.0
2017-Jun-22 00:00N 66°01' E 012°38'0 0.0
2017-Jun-21 23:29N 66°01' E 012°38'0 0.0
2017-Jun-21 23:00N 66°01' E 012°38'0 0.0
2017-Jun-21 22:30N 66°01' E 012°38'0 0.0
2017-Jun-21 21:59N 66°01' E 012°38'0 0.0
2017-Jun-21 21:30N 66°01' E 012°38'0 0.0
2017-Jun-21 20:59N 66°01' E 012°38'0 0.0
2017-Jun-21 20:30N 66°01' E 012°38'0 0.0
2017-Jun-21 20:00N 66°01' E 012°38'4 7.6
2017-Jun-21 19:30N 66°05' E 012°35'1224.7
2017-Jun-21 19:00N 66°12' E 013°00'917.7
2017-Jun-21 18:30N 66°21' E 012°56'713.8
2017-Jun-21 18:00N 66°27' E 012°50'816.2
2017-Jun-21 17:30N 66°35' E 012°59'815.6
2017-Jun-21 16:59N 66°41' E 013°11'511.2
2017-Jun-21 16:30N 66°46' E 013°14'612.5
2017-Jun-21 16:00N 66°48' E 013°29'611.9
2017-Jun-21 15:30N 66°54' E 013°31'815.5
2017-Jun-21 15:01N 67°01' E 013°40'1019.6
2017-Jun-21 14:30N 67°08' E 013°58'1413.8
2017-Jun-21 13:30N 67°17' E 014°24'0 0.7
2017-Jun-21 13:01N 67°17' E 014°23'0 0.8
2017-Jun-21 12:30N 67°17' E 014°22'0 0.0
2017-Jun-21 12:00N 67°17' E 014°22'0 0.0
2017-Jun-21 11:30N 67°17' E 014°22'0 0.0
2017-Jun-21 11:00N 67°17' E 014°22'0 0.0
2017-Jun-21 10:30N 67°17' E 014°22'0 0.0
2017-Jun-21 10:00N 67°17' E 014°22'0 0.0
2017-Jun-21 09:30N 67°17' E 014°22'0 0.0
2017-Jun-21 09:00N 67°17' E 014°22'0 0.0
2017-Jun-21 08:30N 67°17' E 014°22'816.1
2017-Jun-21 08:01N 67°24' E 014°32'50 4.4
2017-Jun-20 20:46N 68°14' E 014°34'42 8.6
2017-Jun-20 15:50N 67°32' E 014°40'1030.2
2017-Jun-20 15:31N 67°23' E 014°30'612.8
2017-Jun-20 15:00N 67°17' E 014°22'0 0.0
2017-Jun-20 14:30N 67°17' E 014°22'0 0.0
2017-Jun-20 13:30N 67°17' E 014°22'0 0.0
2017-Jun-20 13:00N 67°17' E 014°22'0 0.0
2017-Jun-20 12:30N 67°17' E 014°22'0 0.0
2017-Jun-20 12:00N 67°17' E 014°22'0 0.0
2017-Jun-20 11:30N 67°17' E 014°22'0 0.0
2017-Jun-20 11:00N 67°17' E 014°22'0 0.0
2017-Jun-20 10:30N 67°17' E 014°22'0 0.0
2017-Jun-20 10:01N 67°17' E 014°22'1020.5
2017-Jun-20 09:30N 67°10' E 014°03'1224.3
2017-Jun-20 09:00N 67°01' E 013°42'2013.8
2017-Jun-20 07:33N 66°45' E 013°13'710.4
2017-Jun-20 06:53N 66°39' E 013°02'821.4
2017-Jun-20 06:30N 66°31' E 012°59'816.2
2017-Jun-20 06:00N 66°24' E 012°50'1223.9
2017-Jun-20 05:30N 66°12' E 012°60'1224.2
2017-Jun-20 05:00N 66°05' E 012°36'4 0.4
2017-Jun-19 19:48N 66°01' E 012°38'412.4
2017-Jun-19 19:30N 66°05' E 012°38'1121.9
2017-Jun-19 18:59N 66°12' E 012°60'918.9
2017-Jun-19 18:30N 66°21' E 012°53'5 9.6
2017-Jun-19 18:01N 66°25' E 012°50'815.5
2017-Jun-19 17:28N 66°33' E 012°58'612.8
2017-Jun-19 16:59N 66°39' E 013°04'1912.5
2017-Jun-19 15:29N 66°54' E 013°31'815.7
2017-Jun-19 15:00N 67°01' E 013°40'2323.0
2017-Jun-19 14:00N 67°17' E 014°22'0 0.0
2017-Jun-19 13:30N 67°17' E 014°22'1 1.5
2017-Jun-19 13:00N 67°17' E 014°24'1 1.5
2017-Jun-19 12:30N 67°17' E 014°22'0 0.0
2017-Jun-19 12:00N 67°17' E 014°22'0 0.0
2017-Jun-19 11:31N 67°17' E 014°22'0 0.0
2017-Jun-19 11:00N 67°17' E 014°22'0 0.0
2017-Jun-19 10:31N 67°17' E 014°22'0 0.0
2017-Jun-19 10:00N 67°17' E 014°22'714.8
2017-Jun-19 09:30N 67°12' E 014°08'1631.0
2017-Jun-19 09:00N 67°01' E 013°41'815.4
2017-Jun-19 08:30N 66°54' E 013°32'612.4
2017-Jun-19 08:00N 66°48' E 013°27'714.8
2017-Jun-19 07:30N 66°43' E 013°14'510.2
2017-Jun-19 07:00N 66°39' E 013°04'917.7
2017-Jun-19 06:30N 66°31' E 013°00'816.7
2017-Jun-19 06:00N 66°24' E 012°49'1224.0
2017-Jun-19 05:30N 66°12' E 012°60'1223.4
2017-Jun-19 05:00N 66°05' E 012°37'4 7.5
2017-Jun-19 04:30N 66°01' E 012°38'0 0.0
2017-Jun-19 04:00N 66°01' E 012°38'0 0.0
2017-Jun-19 03:30N 66°01' E 012°38'0 0.0
2017-Jun-19 03:00N 66°01' E 012°38'0 0.0
2017-Jun-19 02:29N 66°01' E 012°38'0 0.0
2017-Jun-19 02:00N 66°01' E 012°38'0 0.0
2017-Jun-19 01:30N 66°01' E 012°38'0 0.0
2017-Jun-19 01:00N 66°01' E 012°38'0 0.0
2017-Jun-19 00:30N 66°01' E 012°38'0 0.0
2017-Jun-19 00:00N 66°01' E 012°38'0 0.0
2017-Jun-18 23:30N 66°01' E 012°38'0 0.0
2017-Jun-18 23:01N 66°01' E 012°38'0 0.0
2017-Jun-18 22:30N 66°01' E 012°38'0 0.0
2017-Jun-18 22:00N 66°01' E 012°38'0 0.0
2017-Jun-18 21:29N 66°01' E 012°38'0 0.0
2017-Jun-18 21:00N 66°01' E 012°38'0 0.0
2017-Jun-18 20:29N 66°01' E 012°38'0 0.0
2017-Jun-18 20:00N 66°01' E 012°38'0 0.0
2017-Jun-18 19:30N 66°01' E 012°38'3 5.5
2017-Jun-18 19:00N 66°04' E 012°40'1223.5
2017-Jun-18 18:30N 66°12' E 013°00'1122.0
2017-Jun-18 18:00N 66°05' E 012°39'4 7.9
2017-Jun-18 17:30N 66°01' E 012°38'0 0.0
2017-Jun-18 17:00N 66°01' E 012°38'0 0.0
2017-Jun-18 16:29N 66°01' E 012°38'511.0
2017-Jun-18 16:00N 66°06' E 012°43'918.5
2017-Jun-18 15:30N 66°14' E 012°55'1019.9
2017-Jun-18 15:00N 66°24' E 012°50'1616.1
2017-Jun-18 14:00N 66°39' E 013°04'510.8
2017-Jun-18 13:30N 66°43' E 013°15'714.0
2017-Jun-18 13:00N 66°48' E 013°27'713.8
2017-Jun-18 12:30N 66°54' E 013°35'612.2
2017-Jun-18 12:00N 66°60' E 013°37'1223.5
2017-Jun-18 11:31N 67°08' E 013°59'1326.2
2017-Jun-18 11:00N 67°17' E 014°22'0 0.0
2017-Jun-18 10:30N 67°17' E 014°22'0 0.0
2017-Jun-18 10:00N 67°17' E 014°22'0 0.0
2017-Jun-18 09:30N 67°17' E 014°22'0 0.0
2017-Jun-18 09:00N 67°17' E 014°22'0 0.0
2017-Jun-18 08:30N 67°17' E 014°22'0 0.0
2017-Jun-18 08:00N 67°17' E 014°22'0 0.0
2017-Jun-18 07:30N 67°17' E 014°22'0 0.0
2017-Jun-18 07:00N 67°17' E 014°22'0 0.0
2017-Jun-18 06:30N 67°17' E 014°22'0 0.0
2017-Jun-18 06:00N 67°17' E 014°22'0 0.0
2017-Jun-18 05:30N 67°17' E 014°22'0 0.0
2017-Jun-18 05:00N 67°17' E 014°22'0 0.0
2017-Jun-18 04:30N 67°17' E 014°22'0 0.0
2017-Jun-18 04:00N 67°17' E 014°22'0 0.0
2017-Jun-18 03:30N 67°17' E 014°22'0 0.0
2017-Jun-18 03:00N 67°17' E 014°22'0 0.0
2017-Jun-18 02:30N 67°17' E 014°22'0 0.0
2017-Jun-18 02:00N 67°17' E 014°22'0 0.0
2017-Jun-18 01:30N 67°17' E 014°22'0 0.0
2017-Jun-18 01:00N 67°17' E 014°22'0 0.0
2017-Jun-18 00:30N 67°17' E 014°22'0 0.0
2017-Jun-18 00:00N 67°17' E 014°22'0 0.0
2017-Jun-17 23:30N 67°17' E 014°22'0 0.0
2017-Jun-17 23:00N 67°17' E 014°22'0 0.0
2017-Jun-17 22:30N 67°17' E 014°22'0 0.0
2017-Jun-17 22:00N 67°17' E 014°22'0 0.0
2017-Jun-17 21:30N 67°17' E 014°22'0 0.0
2017-Jun-17 21:00N 67°17' E 014°22'0 0.0
2017-Jun-17 20:30N 67°17' E 014°22'0 0.0
2017-Jun-17 20:00N 67°17' E 014°22'0 0.0
2017-Jun-17 19:30N 67°17' E 014°22'0 0.0
2017-Jun-17 19:00N 67°17' E 014°22'0 0.0
2017-Jun-17 18:30N 67°17' E 014°22'0 0.0
2017-Jun-17 18:00N 67°17' E 014°22'0 0.0
2017-Jun-17 17:30N 67°17' E 014°22'0 0.0
2017-Jun-17 17:00N 67°17' E 014°22'0 0.0
2017-Jun-17 16:30N 67°17' E 014°22'0 0.0
2017-Jun-17 16:00N 67°17' E 014°22'0 0.0
2017-Jun-17 15:30N 67°17' E 014°22'0 0.0
2017-Jun-17 15:00N 67°17' E 014°22'0 0.0
2017-Jun-17 14:30N 67°17' E 014°22'0 0.0
2017-Jun-17 13:30N 67°17' E 014°22'0 0.0
2017-Jun-17 13:00N 67°17' E 014°22'0 0.0
2017-Jun-17 12:30N 67°17' E 014°22'0 0.0
2017-Jun-17 12:00N 67°17' E 014°22'0 0.0
2017-Jun-17 11:30N 67°17' E 014°22'0 0.0
2017-Jun-17 11:00N 67°17' E 014°22'1 1.1
2017-Jun-17 10:30N 67°17' E 014°23'1 1.2
2017-Jun-17 10:01N 67°17' E 014°22'1224.5
2017-Jun-17 09:30N 67°07' E 014°03'1121.0
2017-Jun-17 09:00N 67°01' E 013°42'815.4
2017-Jun-17 08:30N 66°54' E 013°33'712.9
2017-Jun-17 08:00N 66°48' E 013°27'714.0
2017-Jun-17 07:30N 66°43' E 013°15'510.8
2017-Jun-17 07:00N 66°39' E 013°04'917.8
2017-Jun-17 06:30N 66°31' E 013°00'816.6
2017-Jun-17 06:00N 66°24' E 012°49'1224.7
2017-Jun-17 05:30N 66°12' E 013°00'1224.9
2017-Jun-17 05:00N 66°05' E 012°35'4 7.6
2017-Jun-17 04:30N 66°01' E 012°38'0 0.0
2017-Jun-17 04:00N 66°01' E 012°38'0 0.0
2017-Jun-17 03:29N 66°01' E 012°38'0 0.0
2017-Jun-17 02:59N 66°01' E 012°38'0 0.0
2017-Jun-17 02:30N 66°01' E 012°38'0 0.0
2017-Jun-17 02:00N 66°01' E 012°38'0 0.0
2017-Jun-17 01:30N 66°01' E 012°38'0 0.0
2017-Jun-17 01:00N 66°01' E 012°38'0 0.0
2017-Jun-17 00:30N 66°01' E 012°38'0 0.0
2017-Jun-17 00:00N 66°01' E 012°38'0 0.0
2017-Jun-16 23:30N 66°01' E 012°38'0 0.0
2017-Jun-16 23:00N 66°01' E 012°38'0 0.0
2017-Jun-16 22:29N 66°01' E 012°38'0 0.0
2017-Jun-16 22:00N 66°01' E 012°38'0 0.0
2017-Jun-16 21:30N 66°01' E 012°38'0 0.0
2017-Jun-16 21:00N 66°01' E 012°38'0 0.0
2017-Jun-16 20:30N 66°01' E 012°38'0 0.0
2017-Jun-16 20:00N 66°01' E 012°38'4 7.6
2017-Jun-16 19:30N 66°05' E 012°35'1224.8
2017-Jun-16 19:00N 66°12' E 013°00'917.5
2017-Jun-16 18:30N 66°21' E 012°59'713.4
2017-Jun-16 18:00N 66°26' E 012°49'815.4
2017-Jun-16 17:30N 66°33' E 012°58'713.8
2017-Jun-16 17:00N 66°39' E 013°06'611.6
2017-Jun-16 16:30N 66°44' E 013°12'816.2
2017-Jun-16 16:00N 66°49' E 013°30'611.5
2017-Jun-16 15:30N 66°54' E 013°31'715.0
2017-Jun-16 15:00N 67°01' E 013°40'1020.0
2017-Jun-16 14:30N 67°08' E 013°58'1313.3
2017-Jun-16 13:30N 67°17' E 014°23'0 0.4
2017-Jun-16 13:00N 67°17' E 014°23'0 0.8
2017-Jun-16 12:30N 67°17' E 014°22'0 0.0
2017-Jun-16 12:00N 67°17' E 014°22'0 0.0
2017-Jun-16 11:31N 67°17' E 014°22'0 0.0
2017-Jun-16 11:00N 67°17' E 014°22'0 0.0
2017-Jun-16 10:30N 67°17' E 014°22'0 0.0
2017-Jun-16 10:00N 67°17' E 014°22'1325.9
2017-Jun-16 09:31N 67°08' E 013°58'1121.9
2017-Jun-16 09:00N 67°00' E 013°38'712.8
2017-Jun-16 08:29N 66°54' E 013°37'714.3
2017-Jun-16 08:00N 66°48' E 013°27'713.2
2017-Jun-16 07:30N 66°43' E 013°17'612.1
2017-Jun-16 07:00N 66°39' E 013°04'917.6
2017-Jun-16 06:30N 66°31' E 013°00'816.5
2017-Jun-16 06:00N 66°24' E 012°49'1224.6
2017-Jun-16 05:30N 66°12' E 013°00'1224.6
2017-Jun-16 05:00N 66°05' E 012°36'4 7.7
2017-Jun-16 04:30N 66°01' E 012°38'0 0.0
2017-Jun-16 03:59N 66°01' E 012°38'0 0.0
2017-Jun-16 03:29N 66°01' E 012°38'0 0.0
2017-Jun-16 02:59N 66°01' E 012°38'0 0.0
2017-Jun-16 02:30N 66°01' E 012°38'0 0.0
2017-Jun-16 02:00N 66°01' E 012°38'0 0.0
2017-Jun-16 01:30N 66°01' E 012°38'0 0.0
2017-Jun-16 01:00N 66°01' E 012°38'0 0.0
2017-Jun-16 00:30N 66°01' E 012°38'0 0.0
2017-Jun-16 00:00N 66°01' E 012°38'0 0.0
2017-Jun-15 23:30N 66°01' E 012°38'0 0.0
2017-Jun-15 23:00N 66°01' E 012°38'0 0.0
2017-Jun-15 22:30N 66°01' E 012°38'0 0.0
2017-Jun-15 22:00N 66°01' E 012°38'0 0.0
2017-Jun-15 21:30N 66°01' E 012°38'0 0.0
2017-Jun-15 21:00N 66°01' E 012°38'0 0.0
2017-Jun-15 20:30N 66°01' E 012°38'0 0.0
2017-Jun-15 20:00N 66°01' E 012°38'510.0
2017-Jun-15 19:30N 66°06' E 012°42'1019.8
2017-Jun-15 19:00N 66°15' E 012°55'917.8
2017-Jun-15 18:30N 66°23' E 012°48'5 9.3
2017-Jun-15 18:00N 66°27' E 012°51'815.9
2017-Jun-15 17:30N 66°35' E 012°59'816.4
2017-Jun-15 17:00N 66°41' E 013°12'612.8
2017-Jun-15 16:30N 66°47' E 013°15'816.7
2017-Jun-15 16:00N 66°49' E 013°35'714.6
2017-Jun-15 15:30N 66°56' E 013°26'1224.2
2017-Jun-15 15:00N 67°03' E 013°51'815.5
2017-Jun-15 14:30N 67°09' E 014°03'1110.8
2017-Jun-15 13:30N 67°17' E 014°22'0 0.0
2017-Jun-15 13:00N 67°17' E 014°22'0 0.0
2017-Jun-15 12:30N 67°17' E 014°22'0 0.0
2017-Jun-15 12:01N 67°17' E 014°22'0 0.0
2017-Jun-15 11:31N 67°17' E 014°22'0 0.0
2017-Jun-15 11:01N 67°17' E 014°22'0 0.0
2017-Jun-15 10:31N 67°17' E 014°22'0 0.0
2017-Jun-15 10:00N 67°17' E 014°22'0 0.0
2017-Jun-15 09:30N 67°17' E 014°22'0 0.0
2017-Jun-15 09:00N 67°17' E 014°22'0 0.8
2017-Jun-15 08:30N 67°17' E 014°23'5 9.7
2017-Jun-15 08:01N 67°22' E 014°28'1529.4
2017-Jun-15 07:30N 67°36' E 014°42'1019.7
2017-Jun-15 07:00N 67°46' E 014°42'5 9.6
2017-Jun-15 06:30N 67°50' E 014°47'1019.7
2017-Jun-15 06:00N 67°54' E 015°11'714.7
2017-Jun-15 05:30N 68°01' E 015°18'1428.4
2017-Jun-15 05:00N 68°08' E 014°46'714.6
2017-Jun-15 04:30N 68°14' E 014°34'0 0.0
2017-Jun-15 04:00N 68°14' E 014°34'0 0.0
2017-Jun-15 03:30N 68°14' E 014°34'0 0.0
2017-Jun-15 03:00N 68°14' E 014°34'0 0.0
2017-Jun-15 02:30N 68°14' E 014°34'0 0.0
2017-Jun-15 02:00N 68°14' E 014°34'0 0.0
2017-Jun-15 01:30N 68°14' E 014°34'0 0.0
2017-Jun-15 01:00N 68°14' E 014°34'0 0.0
2017-Jun-15 00:30N 68°14' E 014°34'0 0.0
2017-Jun-15 00:00N 68°14' E 014°34'0 0.0
2017-Jun-14 23:30N 68°14' E 014°34'0 0.0
2017-Jun-14 23:00N 68°14' E 014°34'0 0.0
2017-Jun-14 22:30N 68°14' E 014°34'0 0.0
2017-Jun-14 22:00N 68°14' E 014°34'0 0.0
2017-Jun-14 21:30N 68°14' E 014°34'0 0.0
2017-Jun-14 21:00N 68°14' E 014°34'0 0.0
2017-Jun-14 20:30N 68°14' E 014°34'0 0.0
2017-Jun-14 20:00N 68°14' E 014°34'0 0.0
2017-Jun-14 19:30N 68°14' E 014°34'0 0.0
2017-Jun-14 19:00N 68°14' E 014°34'713.5
2017-Jun-14 18:30N 68°08' E 014°44'1429.1
2017-Jun-14 18:00N 68°01' E 015°18'814.9
2017-Jun-14 17:30N 67°54' E 015°11'1019.9
2017-Jun-14 17:00N 67°50' E 014°47'510.7
2017-Jun-14 16:30N 67°46' E 014°39'1019.4
2017-Jun-14 16:00N 67°36' E 014°42'1529.7
2017-Jun-14 15:31N 67°23' E 014°29'612.4
2017-Jun-14 15:01N 67°17' E 014°22'0 0.0
2017-Jun-14 14:01N 67°17' E 014°22'0 0.0
2017-Jun-14 13:31N 67°17' E 014°22'  
Track history (hours):
 
Tides and Currents Weather Stations Pressure Air Temp Water Temp Dewpoint Dewpoint Depression Visibility Wind Speed Wind Dir Waves Ship Positions

Salten

Last reported at 2017-Jun-24 13:30 UTC. Time now 2017-Jun-24 13:53 UTC.
Position N 67°17' E 014°22'.

Length 41 m; draft 2 m.

Type: High speed craft. MMSI: 259387000.

Date/timePositionNaut miles runAvg speedWind from/ knotsBaromVisibWave heightAir tempDewpointWater temp
2017-Jun-24 13:30N 67°17' E 014°22'0 0.0
2017-Jun-24 13:00N 67°17' E 014°22'0 0.0
2017-Jun-24 12:30N 67°17' E 014°22'0 0.0
2017-Jun-24 12:00N 67°17' E 014°22'0 0.0
2017-Jun-24 11:30N 67°17' E 014°22'0 0.0
2017-Jun-24 11:00N 67°17' E 014°22'0 0.0
2017-Jun-24 10:30N 67°17' E 014°22'0 0.0
2017-Jun-24 10:00N 67°17' E 014°22'0 0.0
2017-Jun-24 09:30N 67°17' E 014°22'0 0.0
2017-Jun-24 09:00N 67°17' E 014°22'0 0.8
2017-Jun-24 08:30N 67°17' E 014°23'611.3
2017-Jun-24 08:01N 67°22' E 014°29'1530.2
2017-Jun-24 07:30N 67°36' E 014°46'815.8
2017-Jun-24 07:00N 67°44' E 014°46'612.7
2017-Jun-24 06:30N 67°51' E 014°47'918.4
2017-Jun-24 06:00N 67°54' E 015°10'815.6
2017-Jun-24 05:30N 68°01' E 015°20'1326.1
2017-Jun-24 05:00N 68°07' E 014°50'918.0
2017-Jun-24 04:30N 68°14' E 014°34'0 0.1
2017-Jun-24 04:00N 68°14' E 014°34'0 0.0
2017-Jun-24 03:30N 68°14' E 014°34'0 0.0
2017-Jun-24 03:00N 68°14' E 014°34'0 0.0
2017-Jun-24 02:30N 68°14' E 014°34'0 0.0
2017-Jun-24 02:00N 68°14' E 014°34'0 0.0
2017-Jun-24 01:30N 68°14' E 014°34'0 0.0
2017-Jun-24 01:00N 68°14' E 014°34'0 0.0
2017-Jun-24 00:30N 68°14' E 014°34'0 0.0
2017-Jun-24 00:00N 68°14' E 014°34'0 0.0
2017-Jun-23 23:30N 68°14' E 014°34'0 0.0
2017-Jun-23 23:00N 68°14' E 014°34'0 0.0
2017-Jun-23 22:30N 68°14' E 014°34'0 0.0
2017-Jun-23 22:00N 68°14' E 014°34'0 0.0
2017-Jun-23 21:30N 68°14' E 014°34'0 0.0
2017-Jun-23 21:00N 68°14' E 014°34'0 0.0
2017-Jun-23 20:29N 68°14' E 014°34'0 0.0
2017-Jun-23 20:00N 68°14' E 014°34'611.6
2017-Jun-23 19:30N 68°09' E 014°40'1530.4
2017-Jun-23 19:00N 68°02' E 015°16'815.8
2017-Jun-23 18:30N 67°54' E 015°11'1019.9
2017-Jun-23 18:00N 67°50' E 014°47'611.5
2017-Jun-23 17:30N 67°46' E 014°37'713.1
2017-Jun-23 16:59N 67°40' E 014°45'1121.9
2017-Jun-23 16:31N 67°30' E 014°38'1428.3
2017-Jun-23 16:00N 67°17' E 014°22'0 0.1
2017-Jun-23 15:30N 67°17' E 014°22'1326.6
2017-Jun-23 15:00N 67°30' E 014°31'8 7.7
2017-Jun-23 14:00N 67°36' E 014°42'1429.0
2017-Jun-23 13:31N 67°23' E 014°30'611.8
2017-Jun-23 13:00N 67°17' E 014°23'0 0.3
2017-Jun-23 12:30N 67°17' E 014°23'0 0.8
2017-Jun-23 12:00N 67°17' E 014°22'0 0.0
2017-Jun-23 11:30N 67°17' E 014°22'0 0.0
2017-Jun-23 11:00N 67°17' E 014°22'0 0.0
2017-Jun-23 10:30N 67°17' E 014°22'0 0.0
2017-Jun-23 10:00N 67°17' E 014°22'0 0.0
2017-Jun-23 09:30N 67°17' E 014°22'0 0.0
2017-Jun-23 09:01N 67°17' E 014°22'0 0.0
2017-Jun-23 08:31N 67°17' E 014°22'1 3.0
2017-Jun-23 08:00N 67°19' E 014°23'1632.2
2017-Jun-23 07:30N 67°33' E 014°42'1122.7
2017-Jun-23 07:00N 67°44' E 014°46'612.5
2017-Jun-23 06:30N 67°51' E 014°47'1019.9
2017-Jun-23 06:00N 67°54' E 015°12'714.2
2017-Jun-23 05:30N 68°01' E 015°21'1529.6
2017-Jun-23 05:01N 68°08' E 014°46'815.0
2017-Jun-23 04:30N 68°14' E 014°34'0 0.0
2017-Jun-23 04:00N 68°14' E 014°34'0 0.0
2017-Jun-23 03:30N 68°14' E 014°34'0 0.0
2017-Jun-23 03:00N 68°14' E 014°34'0 0.0
2017-Jun-23 02:30N 68°14' E 014°34'0 0.0
2017-Jun-23 02:00N 68°14' E 014°34'0 0.0
2017-Jun-23 01:30N 68°14' E 014°34'0 0.0
2017-Jun-23 01:00N 68°14' E 014°34'0 0.0
2017-Jun-23 00:30N 68°14' E 014°34'0 0.0
2017-Jun-23 00:00N 68°14' E 014°34'0 0.0
2017-Jun-22 23:30N 68°14' E 014°34'0 0.0
2017-Jun-22 23:00N 68°14' E 014°34'0 0.0
2017-Jun-22 22:30N 68°14' E 014°34'0 0.0
2017-Jun-22 22:00N 68°14' E 014°34'0 0.0
2017-Jun-22 21:30N 68°14' E 014°34'0 0.0
2017-Jun-22 21:00N 68°14' E 014°34'0 0.0
2017-Jun-22 20:30N 68°14' E 014°34'0 0.0
2017-Jun-22 20:01N 68°14' E 014°34'0 0.0
2017-Jun-22 19:30N 68°14' E 014°34'4 7.3
2017-Jun-22 19:00N 68°10' E 014°38'1020.4
2017-Jun-22 18:30N 68°05' E 015°02'919.1
2017-Jun-22 18:00N 67°59' E 015°20'917.8
2017-Jun-22 17:30N 67°54' E 014°60'612.4
2017-Jun-22 17:00N 67°51' E 014°47'611.4
2017-Jun-22 16:30N 67°45' E 014°46'1019.6
2017-Jun-22 16:00N 67°35' E 014°43'1429.0
2017-Jun-22 15:31N 67°22' E 014°28'510.7
2017-Jun-22 15:00N 67°17' E 014°22'0 0.0
2017-Jun-22 14:00N 67°17' E 014°22'0 0.0
2017-Jun-22 13:30N 67°17' E 014°22'0 0.0
2017-Jun-22 13:00N 67°17' E 014°22'0 0.0
2017-Jun-22 12:30N 67°17' E 014°22'0 0.0
2017-Jun-22 12:00N 67°17' E 014°22'0 0.0
2017-Jun-22 11:30N 67°17' E 014°22'0 0.0
2017-Jun-22 11:00N 67°17' E 014°22'0 0.0
2017-Jun-22 10:30N 67°17' E 014°22'0 0.5
2017-Jun-22 10:00N 67°17' E 014°23'919.0
2017-Jun-22 09:31N 67°11' E 014°05'1529.9
2017-Jun-22 09:00N 66°60' E 013°38'612.7
2017-Jun-22 08:30N 66°54' E 013°35'713.3
2017-Jun-22 08:00N 66°48' E 013°27'815.0
2017-Jun-22 07:30N 66°43' E 013°12'5 9.8
2017-Jun-22 07:00N 66°39' E 013°04'917.6
2017-Jun-22 06:30N 66°31' E 013°00'816.6
2017-Jun-22 06:00N 66°24' E 012°49'1224.9
2017-Jun-22 05:30N 66°12' E 013°00'1224.9
2017-Jun-22 05:00N 66°05' E 012°35'4 6.8
2017-Jun-22 04:27N 66°01' E 012°38'0 0.0
2017-Jun-22 03:59N 66°01' E 012°38'0 0.0
2017-Jun-22 03:29N 66°01' E 012°38'0 0.0
2017-Jun-22 02:59N 66°01' E 012°38'0 0.0
2017-Jun-22 02:30N 66°01' E 012°38'0 0.0
2017-Jun-22 02:00N 66°01' E 012°38'0 0.0
2017-Jun-22 01:28N 66°01' E 012°38'0 0.0
2017-Jun-22 01:00N 66°01' E 012°38'0 0.0
2017-Jun-22 00:29N 66°01' E 012°38'0 0.0
2017-Jun-22 00:00N 66°01' E 012°38'0 0.0
2017-Jun-21 23:29N 66°01' E 012°38'0 0.0
2017-Jun-21 23:00N 66°01' E 012°38'0 0.0
2017-Jun-21 22:30N 66°01' E 012°38'0 0.0
2017-Jun-21 21:59N 66°01' E 012°38'0 0.0
2017-Jun-21 21:30N 66°01' E 012°38'0 0.0
2017-Jun-21 20:59N 66°01' E 012°38'0 0.0
2017-Jun-21 20:30N 66°01' E 012°38'0 0.0
2017-Jun-21 20:00N 66°01' E 012°38'4 7.6
2017-Jun-21 19:30N 66°05' E 012°35'1224.7
2017-Jun-21 19:00N 66°12' E 013°00'917.7
2017-Jun-21 18:30N 66°21' E 012°56'713.8
2017-Jun-21 18:00N 66°27' E 012°50'816.2
2017-Jun-21 17:30N 66°35' E 012°59'815.6
2017-Jun-21 16:59N 66°41' E 013°11'511.2
2017-Jun-21 16:30N 66°46' E 013°14'612.5
2017-Jun-21 16:00N 66°48' E 013°29'611.9
2017-Jun-21 15:30N 66°54' E 013°31'815.5
2017-Jun-21 15:01N 67°01' E 013°40'1019.6
2017-Jun-21 14:30N 67°08' E 013°58'1413.8
2017-Jun-21 13:30N 67°17' E 014°24'0 0.7
2017-Jun-21 13:01N 67°17' E 014°23'0 0.8
2017-Jun-21 12:30N 67°17' E 014°22'0 0.0
2017-Jun-21 12:00N 67°17' E 014°22'0 0.0
2017-Jun-21 11:30N 67°17' E 014°22'0 0.0
2017-Jun-21 11:00N 67°17' E 014°22'0 0.0
2017-Jun-21 10:30N 67°17' E 014°22'0 0.0
2017-Jun-21 10:00N 67°17' E 014°22'0 0.0
2017-Jun-21 09:30N 67°17' E 014°22'0 0.0
2017-Jun-21 09:00N 67°17' E 014°22'0 0.0
2017-Jun-21 08:30N 67°17' E 014°22'816.1
2017-Jun-21 08:01N 67°24' E 014°32'50 4.4
2017-Jun-20 20:46N 68°14' E 014°34'42 8.6
2017-Jun-20 15:50N 67°32' E 014°40'1030.2
2017-Jun-20 15:31N 67°23' E 014°30'612.8
2017-Jun-20 15:00N 67°17' E 014°22'0 0.0
2017-Jun-20 14:30N 67°17' E 014°22'0 0.0
2017-Jun-20 13:30N 67°17' E 014°22'0 0.0
2017-Jun-20 13:00N 67°17' E 014°22'0 0.0
2017-Jun-20 12:30N 67°17' E 014°22'0 0.0
2017-Jun-20 12:00N 67°17' E 014°22'0 0.0
2017-Jun-20 11:30N 67°17' E 014°22'0 0.0
2017-Jun-20 11:00N 67°17' E 014°22'0 0.0
2017-Jun-20 10:30N 67°17' E 014°22'0 0.0
2017-Jun-20 10:01N 67°17' E 014°22'1020.5
2017-Jun-20 09:30N 67°10' E 014°03'1224.3
2017-Jun-20 09:00N 67°01' E 013°42'2013.8
2017-Jun-20 07:33N 66°45' E 013°13'710.4
2017-Jun-20 06:53N 66°39' E 013°02'821.4
2017-Jun-20 06:30N 66°31' E 012°59'816.2
2017-Jun-20 06:00N 66°24' E 012°50'1223.9
2017-Jun-20 05:30N 66°12' E 012°60'1224.2
2017-Jun-20 05:00N 66°05' E 012°36'4 0.4
2017-Jun-19 19:48N 66°01' E 012°38'412.4
2017-Jun-19 19:30N 66°05' E 012°38'1121.9
2017-Jun-19 18:59N 66°12' E 012°60'918.9
2017-Jun-19 18:30N 66°21' E 012°53'5 9.6
2017-Jun-19 18:01N 66°25' E 012°50'815.5
2017-Jun-19 17:28N 66°33' E 012°58'612.8
2017-Jun-19 16:59N 66°39' E 013°04'1912.5
2017-Jun-19 15:29N 66°54' E 013°31'815.7
2017-Jun-19 15:00N 67°01' E 013°40'2323.0
2017-Jun-19 14:00N 67°17' E 014°22'0 0.0
2017-Jun-19 13:30N 67°17' E 014°22'1 1.5
2017-Jun-19 13:00N 67°17' E 014°24'1 1.5
2017-Jun-19 12:30N 67°17' E 014°22'0 0.0
2017-Jun-19 12:00N 67°17' E 014°22'0 0.0
2017-Jun-19 11:31N 67°17' E 014°22'0 0.0
2017-Jun-19 11:00N 67°17' E 014°22'0 0.0
2017-Jun-19 10:31N 67°17' E 014°22'0 0.0
2017-Jun-19 10:00N 67°17' E 014°22'714.8
2017-Jun-19 09:30N 67°12' E 014°08'1631.0
2017-Jun-19 09:00N 67°01' E 013°41'815.4
2017-Jun-19 08:30N 66°54' E 013°32'612.4
2017-Jun-19 08:00N 66°48' E 013°27'714.8
2017-Jun-19 07:30N 66°43' E 013°14'510.2
2017-Jun-19 07:00N 66°39' E 013°04'917.7
2017-Jun-19 06:30N 66°31' E 013°00'816.7
2017-Jun-19 06:00N 66°24' E 012°49'1224.0
2017-Jun-19 05:30N 66°12' E 012°60'1223.4
2017-Jun-19 05:00N 66°05' E 012°37'4 7.5
2017-Jun-19 04:30N 66°01' E 012°38'0 0.0
2017-Jun-19 04:00N 66°01' E 012°38'0 0.0
2017-Jun-19 03:30N 66°01' E 012°38'0 0.0
2017-Jun-19 03:00N 66°01' E 012°38'0 0.0
2017-Jun-19 02:29N 66°01' E 012°38'0 0.0
2017-Jun-19 02:00N 66°01' E 012°38'0 0.0
2017-Jun-19 01:30N 66°01' E 012°38'0 0.0
2017-Jun-19 01:00N 66°01' E 012°38'0 0.0
2017-Jun-19 00:30N 66°01' E 012°38'0 0.0
2017-Jun-19 00:00N 66°01' E 012°38'0 0.0
2017-Jun-18 23:30N 66°01' E 012°38'0 0.0
2017-Jun-18 23:01N 66°01' E 012°38'0 0.0
2017-Jun-18 22:30N 66°01' E 012°38'0 0.0
2017-Jun-18 22:00N 66°01' E 012°38'0 0.0
2017-Jun-18 21:29N 66°01' E 012°38'0 0.0
2017-Jun-18 21:00N 66°01' E 012°38'0 0.0
2017-Jun-18 20:29N 66°01' E 012°38'0 0.0
2017-Jun-18 20:00N 66°01' E 012°38'0 0.0
2017-Jun-18 19:30N 66°01' E 012°38'3 5.5
2017-Jun-18 19:00N 66°04' E 012°40'1223.5
2017-Jun-18 18:30N 66°12' E 013°00'1122.0
2017-Jun-18 18:00N 66°05' E 012°39'4 7.9
2017-Jun-18 17:30N 66°01' E 012°38'0 0.0
2017-Jun-18 17:00N 66°01' E 012°38'0 0.0
2017-Jun-18 16:29N 66°01' E 012°38'511.0
2017-Jun-18 16:00N 66°06' E 012°43'918.5
2017-Jun-18 15:30N 66°14' E 012°55'1019.9
2017-Jun-18 15:00N 66°24' E 012°50'1616.1
2017-Jun-18 14:00N 66°39' E 013°04'510.8
2017-Jun-18 13:30N 66°43' E 013°15'714.0
2017-Jun-18 13:00N 66°48' E 013°27'713.8
2017-Jun-18 12:30N 66°54' E 013°35'612.2
2017-Jun-18 12:00N 66°60' E 013°37'1223.5
2017-Jun-18 11:31N 67°08' E 013°59'1326.2
2017-Jun-18 11:00N 67°17' E 014°22'0 0.0
2017-Jun-18 10:30N 67°17' E 014°22'0 0.0
2017-Jun-18 10:00N 67°17' E 014°22'0 0.0
2017-Jun-18 09:30N 67°17' E 014°22'0 0.0
2017-Jun-18 09:00N 67°17' E 014°22'0 0.0
2017-Jun-18 08:30N 67°17' E 014°22'0 0.0
2017-Jun-18 08:00N 67°17' E 014°22'0 0.0
2017-Jun-18 07:30N 67°17' E 014°22'0 0.0
2017-Jun-18 07:00N 67°17' E 014°22'0 0.0
2017-Jun-18 06:30N 67°17' E 014°22'0 0.0
2017-Jun-18 06:00N 67°17' E 014°22'0 0.0
2017-Jun-18 05:30N 67°17' E 014°22'0 0.0
2017-Jun-18 05:00N 67°17' E 014°22'0 0.0
2017-Jun-18 04:30N 67°17' E 014°22'0 0.0
2017-Jun-18 04:00N 67°17' E 014°22'0 0.0
2017-Jun-18 03:30N 67°17' E 014°22'0 0.0
2017-Jun-18 03:00N 67°17' E 014°22'0 0.0
2017-Jun-18 02:30N 67°17' E 014°22'0 0.0
2017-Jun-18 02:00N 67°17' E 014°22'0 0.0
2017-Jun-18 01:30N 67°17' E 014°22'0 0.0
2017-Jun-18 01:00N 67°17' E 014°22'0 0.0
2017-Jun-18 00:30N 67°17' E 014°22'0 0.0
2017-Jun-18 00:00N 67°17' E 014°22'0 0.0
2017-Jun-17 23:30N 67°17' E 014°22'0 0.0
2017-Jun-17 23:00N 67°17' E 014°22'0 0.0
2017-Jun-17 22:30N 67°17' E 014°22'0 0.0
2017-Jun-17 22:00N 67°17' E 014°22'0 0.0
2017-Jun-17 21:30N 67°17' E 014°22'0 0.0
2017-Jun-17 21:00N 67°17' E 014°22'0 0.0
2017-Jun-17 20:30N 67°17' E 014°22'0 0.0
2017-Jun-17 20:00N 67°17' E 014°22'0 0.0
2017-Jun-17 19:30N 67°17' E 014°22'0 0.0
2017-Jun-17 19:00N 67°17' E 014°22'0 0.0
2017-Jun-17 18:30N 67°17' E 014°22'0 0.0
2017-Jun-17 18:00N 67°17' E 014°22'0 0.0
2017-Jun-17 17:30N 67°17' E 014°22'0 0.0
2017-Jun-17 17:00N 67°17' E 014°22'0 0.0
2017-Jun-17 16:30N 67°17' E 014°22'0 0.0
2017-Jun-17 16:00N 67°17' E 014°22'0 0.0
2017-Jun-17 15:30N 67°17' E 014°22'0 0.0
2017-Jun-17 15:00N 67°17' E 014°22'0 0.0
2017-Jun-17 14:30N 67°17' E 014°22'0 0.0
2017-Jun-17 13:30N 67°17' E 014°22'0 0.0
2017-Jun-17 13:00N 67°17' E 014°22'0 0.0
2017-Jun-17 12:30N 67°17' E 014°22'0 0.0
2017-Jun-17 12:00N 67°17' E 014°22'0 0.0
2017-Jun-17 11:30N 67°17' E 014°22'0 0.0
2017-Jun-17 11:00N 67°17' E 014°22'1 1.1
2017-Jun-17 10:30N 67°17' E 014°23'1 1.2
2017-Jun-17 10:01N 67°17' E 014°22'1224.5
2017-Jun-17 09:30N 67°07' E 014°03'1121.0
2017-Jun-17 09:00N 67°01' E 013°42'815.4
2017-Jun-17 08:30N 66°54' E 013°33'712.9
2017-Jun-17 08:00N 66°48' E 013°27'714.0
2017-Jun-17 07:30N 66°43' E 013°15'510.8
2017-Jun-17 07:00N 66°39' E 013°04'917.8
2017-Jun-17 06:30N 66°31' E 013°00'816.6
2017-Jun-17 06:00N 66°24' E 012°49'1224.7
2017-Jun-17 05:30N 66°12' E 013°00'1224.9
2017-Jun-17 05:00N 66°05' E 012°35'4 7.6
2017-Jun-17 04:30N 66°01' E 012°38'0 0.0
2017-Jun-17 04:00N 66°01' E 012°38'0 0.0
2017-Jun-17 03:29N 66°01' E 012°38'0 0.0
2017-Jun-17 02:59N 66°01' E 012°38'0 0.0
2017-Jun-17 02:30N 66°01' E 012°38'0 0.0
2017-Jun-17 02:00N 66°01' E 012°38'0 0.0
2017-Jun-17 01:30N 66°01' E 012°38'0 0.0
2017-Jun-17 01:00N 66°01' E 012°38'0 0.0
2017-Jun-17 00:30N 66°01' E 012°38'0 0.0
2017-Jun-17 00:00N 66°01' E 012°38'0 0.0
2017-Jun-16 23:30N 66°01' E 012°38'0 0.0
2017-Jun-16 23:00N 66°01' E 012°38'0 0.0
2017-Jun-16 22:29N 66°01' E 012°38'0 0.0
2017-Jun-16 22:00N 66°01' E 012°38'0 0.0
2017-Jun-16 21:30N 66°01' E 012°38'0 0.0
2017-Jun-16 21:00N 66°01' E 012°38'0 0.0
2017-Jun-16 20:30N 66°01' E 012°38'0 0.0
2017-Jun-16 20:00N 66°01' E 012°38'4 7.6
2017-Jun-16 19:30N 66°05' E 012°35'1224.8
2017-Jun-16 19:00N 66°12' E 013°00'917.5
2017-Jun-16 18:30N 66°21' E 012°59'713.4
2017-Jun-16 18:00N 66°26' E 012°49'815.4
2017-Jun-16 17:30N 66°33' E 012°58'713.8
2017-Jun-16 17:00N 66°39' E 013°06'611.6
2017-Jun-16 16:30N 66°44' E 013°12'816.2
2017-Jun-16 16:00N 66°49' E 013°30'611.5
2017-Jun-16 15:30N 66°54' E 013°31'715.0
2017-Jun-16 15:00N 67°01' E 013°40'1020.0
2017-Jun-16 14:30N 67°08' E 013°58'1313.3
2017-Jun-16 13:30N 67°17' E 014°23'0 0.4
2017-Jun-16 13:00N 67°17' E 014°23'0 0.8
2017-Jun-16 12:30N 67°17' E 014°22'0 0.0
2017-Jun-16 12:00N 67°17' E 014°22'0 0.0
2017-Jun-16 11:31N 67°17' E 014°22'0 0.0
2017-Jun-16 11:00N 67°17' E 014°22'0 0.0
2017-Jun-16 10:30N 67°17' E 014°22'0 0.0
2017-Jun-16 10:00N 67°17' E 014°22'1325.9
2017-Jun-16 09:31N 67°08' E 013°58'1121.9
2017-Jun-16 09:00N 67°00' E 013°38'712.8
2017-Jun-16 08:29N 66°54' E 013°37'714.3
2017-Jun-16 08:00N 66°48' E 013°27'713.2
2017-Jun-16 07:30N 66°43' E 013°17'612.1
2017-Jun-16 07:00N 66°39' E 013°04'917.6
2017-Jun-16 06:30N 66°31' E 013°00'816.5
2017-Jun-16 06:00N 66°24' E 012°49'1224.6
2017-Jun-16 05:30N 66°12' E 013°00'1224.6
2017-Jun-16 05:00N 66°05' E 012°36'4 7.7
2017-Jun-16 04:30N 66°01' E 012°38'0 0.0
2017-Jun-16 03:59N 66°01' E 012°38'0 0.0
2017-Jun-16 03:29N 66°01' E 012°38'0 0.0
2017-Jun-16 02:59N 66°01' E 012°38'0 0.0
2017-Jun-16 02:30N 66°01' E 012°38'0 0.0
2017-Jun-16 02:00N 66°01' E 012°38'0 0.0
2017-Jun-16 01:30N 66°01' E 012°38'0 0.0
2017-Jun-16 01:00N 66°01' E 012°38'0 0.0
2017-Jun-16 00:30N 66°01' E 012°38'0 0.0
2017-Jun-16 00:00N 66°01' E 012°38'0 0.0
2017-Jun-15 23:30N 66°01' E 012°38'0 0.0
2017-Jun-15 23:00N 66°01' E 012°38'0 0.0
2017-Jun-15 22:30N 66°01' E 012°38'0 0.0
2017-Jun-15 22:00N 66°01' E 012°38'0 0.0
2017-Jun-15 21:30N 66°01' E 012°38'0 0.0
2017-Jun-15 21:00N 66°01' E 012°38'0 0.0
2017-Jun-15 20:30N 66°01' E 012°38'0 0.0
2017-Jun-15 20:00N 66°01' E 012°38'510.0
2017-Jun-15 19:30N 66°06' E 012°42'1019.8
2017-Jun-15 19:00N 66°15' E 012°55'917.8
2017-Jun-15 18:30N 66°23' E 012°48'5 9.3
2017-Jun-15 18:00N 66°27' E 012°51'815.9
2017-Jun-15 17:30N 66°35' E 012°59'816.4
2017-Jun-15 17:00N 66°41' E 013°12'612.8
2017-Jun-15 16:30N 66°47' E 013°15'816.7
2017-Jun-15 16:00N 66°49' E 013°35'714.6
2017-Jun-15 15:30N 66°56' E 013°26'1224.2
2017-Jun-15 15:00N 67°03' E 013°51'815.5
2017-Jun-15 14:30N 67°09' E 014°03'1110.8
2017-Jun-15 13:30N 67°17' E 014°22'0 0.0
2017-Jun-15 13:00N 67°17' E 014°22'0 0.0
2017-Jun-15 12:30N 67°17' E 014°22'0 0.0
2017-Jun-15 12:01N 67°17' E 014°22'0 0.0
2017-Jun-15 11:31N 67°17' E 014°22'0 0.0
2017-Jun-15 11:01N 67°17' E 014°22'0 0.0
2017-Jun-15 10:31N 67°17' E 014°22'0 0.0
2017-Jun-15 10:00N 67°17' E 014°22'0 0.0
2017-Jun-15 09:30N 67°17' E 014°22'0 0.0
2017-Jun-15 09:00N 67°17' E 014°22'0 0.8
2017-Jun-15 08:30N 67°17' E 014°23'5 9.7
2017-Jun-15 08:01N 67°22' E 014°28'1529.4
2017-Jun-15 07:30N 67°36' E 014°42'1019.7
2017-Jun-15 07:00N 67°46' E 014°42'5 9.6
2017-Jun-15 06:30N 67°50' E 014°47'1019.7
2017-Jun-15 06:00N 67°54' E 015°11'714.7
2017-Jun-15 05:30N 68°01' E 015°18'1428.4
2017-Jun-15 05:00N 68°08' E 014°46'714.6
2017-Jun-15 04:30N 68°14' E 014°34'0 0.0
2017-Jun-15 04:00N 68°14' E 014°34'0 0.0
2017-Jun-15 03:30N 68°14' E 014°34'0 0.0
2017-Jun-15 03:00N 68°14' E 014°34'0 0.0
2017-Jun-15 02:30N 68°14' E 014°34'0 0.0
2017-Jun-15 02:00N 68°14' E 014°34'0 0.0
2017-Jun-15 01:30N 68°14' E 014°34'0 0.0
2017-Jun-15 01:00N 68°14' E 014°34'0 0.0
2017-Jun-15 00:30N 68°14' E 014°34'0 0.0
2017-Jun-15 00:00N 68°14' E 014°34'0 0.0
2017-Jun-14 23:30N 68°14' E 014°34'0 0.0
2017-Jun-14 23:00N 68°14' E 014°34'0 0.0
2017-Jun-14 22:30N 68°14' E 014°34'0 0.0
2017-Jun-14 22:00N 68°14' E 014°34'0 0.0
2017-Jun-14 21:30N 68°14' E 014°34'0 0.0
2017-Jun-14 21:00N 68°14' E 014°34'0 0.0
2017-Jun-14 20:30N 68°14' E 014°34'0 0.0
2017-Jun-14 20:00N 68°14' E 014°34'0 0.0
2017-Jun-14 19:30N 68°14' E 014°34'0 0.0
2017-Jun-14 19:00N 68°14' E 014°34'713.5
2017-Jun-14 18:30N 68°08' E 014°44'1429.1
2017-Jun-14 18:00N 68°01' E 015°18'814.9
2017-Jun-14 17:30N 67°54' E 015°11'1019.9
2017-Jun-14 17:00N 67°50' E 014°47'510.7
2017-Jun-14 16:30N 67°46' E 014°39'1019.4
2017-Jun-14 16:00N 67°36' E 014°42'1529.7
2017-Jun-14 15:31N 67°23' E 014°29'612.4
2017-Jun-14 15:01N 67°17' E 014°22'0 0.0
2017-Jun-14 14:01N 67°17' E 014°22'0 0.0
2017-Jun-14 13:31N 67°17' E 014°22'  

Dump ship's entire track history